createdAt,value
2023-03-17T00:01:21.871Z,65.80
2023-03-17T00:03:51.666Z,66.00
2023-03-17T00:06:24.642Z,66.40
2023-03-17T00:08:52.898Z,66.10
2023-03-17T00:11:21.690Z,66.50
2023-03-17T00:13:50.154Z,66.80
2023-03-17T00:16:20.770Z,67.40
2023-03-17T00:18:51.444Z,67.20
2023-03-17T00:21:24.000Z,67.80
2023-03-17T00:23:53.185Z,68.30
2023-03-17T00:26:21.686Z,68.50
2023-03-17T00:28:51.092Z,69.00
2023-03-17T00:31:22.293Z,69.20
2023-03-17T00:33:54.146Z,69.70
2023-03-17T00:36:25.040Z,70.20
2023-03-17T00:38:53.745Z,70.70
2023-03-17T00:41:22.488Z,70.90
2023-03-17T00:43:51.422Z,70.90
2023-03-17T00:46:22.089Z,70.70
2023-03-17T00:48:51.829Z,71.00
2023-03-17T00:51:20.250Z,71.20
2023-03-17T00:53:48.722Z,71.40
2023-03-17T00:56:18.493Z,71.30
2023-03-17T00:58:47.606Z,72.00
2023-03-17T01:01:16.085Z,72.10
2023-03-17T01:03:44.664Z,72.10
2023-03-17T01:06:15.594Z,72.50
2023-03-17T01:08:44.888Z,72.60
2023-03-17T01:11:16.259Z,72.60
2023-03-17T01:13:44.829Z,72.80
2023-03-17T01:16:13.584Z,73.00
2023-03-17T01:18:41.943Z,73.30
2023-03-17T01:21:10.288Z,73.40
2023-03-17T01:23:39.990Z,73.40
2023-03-17T01:26:08.252Z,73.60
2023-03-17T01:28:36.513Z,73.80
2023-03-17T01:31:05.031Z,74.20
2023-03-17T01:33:33.690Z,73.90
2023-03-17T01:36:01.992Z,74.00
2023-03-17T01:38:30.287Z,74.20
2023-03-17T01:41:00.138Z,74.20
2023-03-17T01:43:30.877Z,74.70
2023-03-17T01:46:20.814Z,75.00
2023-03-17T01:48:57.850Z,75.00
2023-03-17T01:51:31.963Z,75.00
2023-03-17T01:54:01.100Z,75.20
2023-03-17T01:56:31.571Z,75.20
2023-03-17T01:59:02.316Z,75.50
2023-03-17T02:01:34.837Z,75.80
2023-03-17T02:04:03.260Z,76.00
2023-03-17T02:06:31.921Z,76.20
2023-03-17T02:09:00.731Z,76.70
2023-03-17T02:11:30.635Z,76.80
2023-03-17T02:13:58.875Z,77.50
2023-03-17T02:16:27.872Z,77.60
2023-03-17T02:18:56.071Z,77.50
2023-03-17T02:21:47.753Z,77.60
2023-03-17T02:24:23.593Z,78.60
2023-03-17T02:26:54.073Z,77.40
2023-03-17T02:29:23.195Z,77.70
2023-03-17T02:31:51.590Z,77.60
2023-03-17T02:34:20.115Z,77.50
2023-03-17T02:36:49.845Z,77.60
2023-03-17T02:39:18.132Z,77.80
2023-03-17T02:41:46.364Z,78.10
2023-03-17T02:44:14.622Z,78.50
2023-03-17T02:46:42.843Z,78.20
2023-03-17T02:49:12.073Z,78.20
2023-03-17T02:51:40.271Z,78.00
2023-03-17T02:54:09.893Z,77.80
2023-03-17T02:56:38.654Z,78.40
2023-03-17T02:59:07.252Z,78.20
2023-03-17T03:01:35.628Z,78.30
2023-03-17T03:04:04.045Z,78.20
2023-03-17T03:06:32.820Z,78.00
2023-03-17T03:09:01.181Z,78.20
2023-03-17T03:11:30.839Z,78.40
2023-03-17T03:13:59.055Z,78.60
2023-03-17T03:16:27.301Z,78.40
2023-03-17T03:18:55.544Z,78.00
2023-03-17T03:21:23.820Z,78.40
2023-03-17T03:23:52.062Z,78.50
2023-03-17T03:26:20.306Z,78.50
2023-03-17T03:28:50.601Z,78.90
2023-03-17T03:31:18.862Z,78.80
2023-03-17T03:33:47.277Z,78.80
2023-03-17T03:36:15.487Z,79.20
2023-03-17T03:38:43.770Z,80.30
2023-03-17T03:41:12.159Z,79.40
2023-03-17T03:43:40.802Z,79.10
2023-03-17T03:46:10.729Z,79.60
2023-03-17T03:48:38.980Z,79.10
2023-03-17T03:51:07.315Z,79.20
2023-03-17T03:53:35.583Z,78.70
2023-03-17T03:56:03.787Z,79.00
2023-03-17T03:58:32.090Z,79.10
2023-03-17T04:01:00.408Z,79.50
2023-03-17T04:03:30.037Z,79.60
2023-03-17T04:05:58.324Z,79.20
2023-03-17T04:08:27.382Z,79.30
2023-03-17T04:10:55.642Z,79.60
2023-03-17T04:13:23.876Z,79.40
2023-03-17T04:15:52.163Z,79.60
2023-03-17T04:18:20.394Z,79.30
2023-03-17T04:20:49.975Z,79.40
2023-03-17T04:23:18.259Z,79.00
2023-03-17T04:25:46.941Z,78.90
2023-03-17T04:28:15.317Z,78.50
2023-03-17T04:30:43.537Z,78.40
2023-03-17T04:33:11.923Z,78.30
2023-03-17T04:35:40.227Z,78.10
2023-03-17T04:38:10.183Z,78.40
2023-03-17T04:40:38.494Z,78.70
2023-03-17T04:43:06.730Z,78.40
2023-03-17T04:45:34.969Z,78.40
2023-03-17T04:48:03.460Z,78.60
2023-03-17T04:50:33.289Z,78.40
2023-03-17T04:53:01.770Z,78.10
2023-03-17T04:55:31.569Z,78.30
2023-03-17T04:57:59.754Z,78.50
2023-03-17T05:00:28.322Z,78.50
2023-03-17T05:02:56.576Z,78.00
2023-03-17T05:05:24.741Z,78.10
2023-03-17T05:07:53.071Z,78.40
2023-03-17T05:10:21.454Z,78.30
2023-03-17T05:12:51.125Z,78.20
2023-03-17T05:15:19.321Z,79.20
2023-03-17T05:17:47.549Z,78.90
2023-03-17T05:20:16.074Z,79.30
2023-03-17T05:22:44.273Z,79.60
2023-03-17T05:25:12.539Z,79.80
2023-03-17T05:27:40.843Z,79.90
2023-03-17T05:30:11.811Z,79.80
2023-03-17T05:32:40.382Z,79.90
2023-03-17T05:35:09.292Z,79.90
2023-03-17T05:37:37.491Z,79.50
2023-03-17T05:40:06.449Z,79.40
2023-03-17T05:42:34.605Z,78.60
2023-03-17T05:45:02.840Z,78.90
2023-03-17T05:47:33.491Z,78.70
2023-03-17T05:50:02.167Z,78.70
2023-03-17T05:52:31.121Z,78.50
2023-03-17T05:54:59.349Z,78.70
2023-03-17T05:57:27.519Z,78.40
2023-03-17T05:59:55.777Z,78.30
2023-03-17T06:02:24.264Z,78.10
2023-03-17T06:04:53.861Z,78.40
2023-03-17T06:07:22.077Z,78.00
2023-03-17T06:09:50.301Z,78.00
2023-03-17T06:12:18.502Z,78.10
2023-03-17T06:14:46.755Z,78.00
2023-03-17T06:17:14.977Z,78.40
2023-03-17T06:19:43.381Z,78.10
2023-03-17T06:22:13.332Z,77.60
2023-03-17T06:24:41.526Z,78.20
2023-03-17T06:27:10.998Z,78.00
2023-03-17T06:29:39.230Z,77.90
2023-03-17T06:32:19.871Z,77.30
2023-03-17T06:34:49.021Z,77.60
2023-03-17T06:37:19.349Z,77.00
2023-03-17T06:39:48.156Z,76.20
2023-03-17T06:42:16.429Z,76.20
2023-03-17T06:44:44.685Z,76.00
2023-03-17T06:47:13.541Z,75.80
2023-03-17T06:49:41.777Z,75.70
2023-03-17T06:52:10.502Z,75.50
2023-03-17T06:54:41.200Z,75.50
2023-03-17T06:57:10.568Z,75.80
2023-03-17T06:59:39.072Z,75.70
2023-03-17T07:02:07.916Z,75.60
2023-03-17T07:04:37.985Z,74.60
2023-03-17T07:07:06.557Z,74.50
2023-03-17T07:09:35.538Z,74.40
2023-03-17T07:12:06.079Z,74.40
2023-03-17T07:14:35.613Z,73.60
2023-03-17T07:17:04.480Z,74.10
2023-03-17T07:19:33.109Z,73.90
2023-03-17T07:22:01.415Z,73.30
2023-03-17T07:24:29.595Z,72.80
2023-03-17T07:26:57.851Z,73.00
2023-03-17T07:29:28.715Z,72.20
2023-03-17T07:31:57.258Z,72.50
2023-03-17T07:34:25.453Z,72.30
2023-03-17T07:36:53.674Z,72.00
2023-03-17T07:39:21.866Z,72.10
2023-03-17T07:41:55.241Z,72.10
2023-03-17T07:44:24.126Z,71.90
2023-03-17T07:46:53.721Z,71.60
2023-03-17T07:49:38.045Z,72.10
2023-03-17T07:52:08.701Z,71.80
2023-03-17T07:54:37.579Z,72.10
2023-03-17T07:57:06.356Z,72.50
2023-03-17T07:59:34.900Z,72.60
2023-03-17T08:02:04.525Z,71.80
2023-03-17T08:04:32.757Z,71.80
2023-03-17T08:07:01.425Z,71.80
2023-03-17T08:09:29.739Z,71.90
2023-03-17T08:11:57.993Z,72.10
2023-03-17T08:14:26.254Z,71.80
2023-03-17T08:16:54.561Z,71.70
2023-03-17T08:19:24.354Z,70.90
2023-03-17T08:21:52.600Z,71.00
2023-03-17T08:24:20.885Z,71.50
2023-03-17T08:26:50.195Z,70.90
2023-03-17T08:29:18.615Z,70.60
2023-03-17T08:31:47.088Z,70.30
2023-03-17T08:34:16.321Z,69.90
2023-03-17T08:36:46.090Z,69.80
2023-03-17T08:39:14.384Z,69.60
2023-03-17T08:41:42.608Z,69.20
2023-03-17T08:44:10.878Z,69.10
2023-03-17T08:46:40.298Z,69.10
2023-03-17T08:49:09.668Z,69.30
2023-03-17T08:51:38.601Z,69.10
2023-03-17T08:54:08.925Z,68.00
2023-03-17T08:56:38.028Z,68.60
2023-03-17T08:59:07.176Z,67.50
2023-03-17T09:01:35.808Z,67.00
2023-03-17T09:04:05.041Z,66.90
2023-03-17T09:06:33.534Z,67.60
2023-03-17T09:09:01.720Z,67.40
2023-03-17T09:11:32.759Z,67.30
2023-03-17T09:14:00.988Z,66.30
2023-03-17T09:16:33.983Z,65.80
2023-03-17T09:19:02.339Z,66.20
2023-03-17T09:21:33.395Z,66.10
2023-03-17T09:24:02.749Z,65.90
2023-03-17T09:26:32.449Z,65.10
2023-03-17T09:29:02.502Z,64.50
2023-03-17T09:31:31.977Z,63.90
2023-03-17T09:34:00.628Z,62.90
2023-03-17T09:36:29.174Z,63.50
2023-03-17T09:38:57.368Z,61.70
2023-03-17T09:41:43.678Z,62.60
2023-03-17T09:44:19.435Z,63.20
2023-03-17T09:46:52.202Z,63.10
2023-03-17T09:49:22.882Z,62.90
2023-03-17T09:51:51.578Z,62.80
2023-03-17T09:54:25.696Z,62.60
2023-03-17T09:57:01.744Z,62.40
2023-03-17T09:59:34.380Z,61.60
2023-03-17T10:02:02.805Z,59.50
2023-03-17T10:04:31.035Z,58.60
2023-03-17T10:07:02.488Z,59.20
2023-03-17T10:09:35.229Z,59.20
2023-03-17T10:12:08.492Z,58.20
2023-03-17T10:14:46.251Z,58.60
2023-03-17T10:17:18.534Z,59.70
2023-03-17T10:19:49.809Z,60.20
2023-03-17T10:22:21.772Z,59.80
2023-03-17T10:24:52.868Z,60.10
2023-03-17T10:27:22.747Z,59.90
2023-03-17T10:29:51.028Z,60.30
2023-03-17T10:32:19.191Z,60.60
2023-03-17T10:34:48.814Z,60.40
2023-03-17T10:37:19.478Z,59.00
2023-03-17T10:39:49.368Z,59.40
2023-03-17T10:42:24.641Z,58.80
2023-03-17T10:44:56.218Z,58.30
2023-03-17T10:47:27.240Z,58.00
2023-03-17T10:49:57.455Z,57.60
2023-03-17T10:52:28.647Z,57.90
2023-03-17T10:54:56.935Z,59.30
2023-03-17T10:57:26.555Z,57.80
2023-03-17T10:59:56.889Z,58.40
2023-03-17T11:02:28.150Z,58.10
2023-03-17T11:05:00.819Z,57.20
2023-03-17T11:07:34.914Z,57.90
2023-03-17T11:10:04.329Z,57.80
2023-03-17T11:12:40.573Z,58.20
2023-03-17T11:15:12.433Z,58.20
2023-03-17T11:17:45.535Z,58.70
2023-03-17T11:20:41.265Z,58.70
2023-03-17T11:23:15.302Z,58.40
2023-03-17T11:25:45.269Z,58.10
2023-03-17T11:28:20.322Z,57.60
2023-03-17T11:30:59.533Z,57.10
2023-03-17T11:33:35.440Z,57.40
2023-03-17T11:36:10.803Z,56.80
2023-03-17T11:38:44.723Z,56.90
2023-03-17T11:41:41.736Z,56.10
2023-03-17T11:44:41.920Z,57.30
2023-03-17T11:47:18.268Z,57.90
2023-03-17T11:49:49.040Z,57.30
2023-03-17T11:52:24.996Z,58.30
2023-03-17T11:54:58.731Z,57.60
2023-03-17T11:57:32.366Z,57.10
2023-03-17T12:00:04.932Z,56.80
2023-03-17T12:02:39.784Z,56.10
2023-03-17T12:05:10.759Z,56.50
2023-03-17T12:07:44.632Z,56.40
2023-03-17T12:10:19.413Z,55.50
2023-03-17T12:12:52.037Z,56.20
2023-03-17T12:15:27.967Z,55.70
2023-03-17T12:17:59.153Z,55.70
2023-03-17T12:20:32.947Z,56.10
2023-03-17T12:23:06.674Z,56.10
2023-03-17T12:25:40.825Z,55.90
2023-03-17T12:28:16.027Z,55.80
2023-03-17T12:30:50.423Z,54.70
2023-03-17T12:33:23.701Z,54.80
2023-03-17T12:35:52.074Z,55.10
2023-03-17T12:38:23.132Z,55.00
2023-03-17T12:41:36.431Z,55.40
2023-03-17T12:44:08.299Z,55.50
2023-03-17T12:47:10.133Z,54.80
2023-03-17T12:50:04.650Z,54.60
2023-03-17T12:53:12.501Z,55.60
2023-03-17T12:55:42.303Z,55.20
2023-03-17T12:58:24.306Z,54.50
2023-03-17T13:00:59.526Z,54.90
2023-03-17T13:03:30.629Z,54.20
2023-03-17T13:06:01.804Z,54.10
2023-03-17T13:08:33.010Z,54.40
2023-03-17T13:11:17.907Z,54.70
2023-03-17T13:13:49.448Z,54.90
2023-03-17T13:16:29.098Z,55.20
2023-03-17T13:19:21.213Z,55.30
2023-03-17T13:21:59.022Z,55.10
2023-03-17T13:24:43.036Z,55.50
2023-03-17T13:27:13.369Z,54.80
2023-03-17T13:29:47.297Z,55.70
2023-03-17T13:32:39.865Z,55.60
2023-03-17T13:35:26.533Z,55.60
2023-03-17T13:38:31.325Z,55.10
2023-03-17T13:41:16.952Z,55.80
2023-03-17T13:43:57.565Z,55.40
2023-03-17T13:46:30.494Z,55.60
2023-03-17T13:48:59.407Z,55.60
2023-03-17T13:51:33.775Z,55.60
2023-03-17T13:54:10.223Z,56.60
2023-03-17T13:56:50.671Z,56.30
2023-03-17T13:59:20.380Z,55.80
2023-03-17T14:01:53.622Z,56.00
2023-03-17T14:04:24.183Z,57.00
2023-03-17T14:06:56.259Z,58.40
2023-03-17T14:09:35.715Z,58.00
2023-03-17T14:12:07.785Z,56.60
2023-03-17T14:14:43.917Z,55.20
2023-03-17T14:17:15.438Z,55.40
2023-03-17T14:20:00.038Z,56.00
2023-03-17T14:22:29.770Z,53.90
2023-03-17T14:25:01.621Z,54.00
2023-03-17T14:27:31.570Z,54.00
2023-03-17T14:30:08.114Z,54.70
2023-03-17T14:32:36.426Z,55.10
2023-03-17T14:35:04.999Z,55.30
2023-03-17T14:37:34.605Z,55.50
2023-03-17T14:40:02.860Z,55.50
2023-03-17T14:42:32.311Z,55.80
2023-03-17T14:45:02.542Z,55.50
2023-03-17T14:47:39.959Z,56.20
2023-03-17T14:50:15.090Z,55.60
2023-03-17T14:52:45.195Z,55.50
2023-03-17T14:55:15.397Z,55.70
2023-03-17T14:57:43.960Z,55.40
2023-03-17T15:00:31.875Z,55.60
2023-03-17T15:03:02.905Z,56.40
2023-03-17T15:05:37.795Z,56.00
2023-03-17T15:08:39.381Z,56.40
2023-03-17T15:11:07.939Z,56.60
2023-03-17T15:13:38.612Z,56.60
2023-03-17T15:16:07.530Z,55.90
2023-03-17T15:18:36.161Z,56.10
2023-03-17T15:21:04.296Z,56.30
2023-03-17T15:23:40.883Z,56.50
2023-03-17T15:26:22.732Z,55.40
2023-03-17T15:28:50.988Z,55.70
2023-03-17T15:31:23.528Z,55.30
2023-03-17T15:33:53.134Z,55.10
2023-03-17T15:36:32.173Z,54.10
2023-03-17T15:39:03.782Z,54.30
2023-03-17T15:41:32.159Z,54.30
2023-03-17T15:44:00.340Z,54.80
2023-03-17T15:46:31.113Z,55.20
2023-03-17T15:48:59.591Z,55.30
2023-03-17T15:51:27.944Z,55.30
2023-03-17T15:53:56.153Z,55.20
2023-03-17T15:56:26.024Z,55.60
2023-03-17T15:58:54.207Z,55.60
2023-03-17T16:01:22.465Z,55.80
2023-03-17T16:03:50.764Z,56.10
2023-03-17T16:06:21.300Z,56.20
2023-03-17T16:08:50.327Z,56.00
2023-03-17T16:11:20.082Z,56.40
2023-03-17T16:13:49.765Z,56.40
2023-03-17T16:16:22.657Z,56.60
2023-03-17T16:18:51.721Z,56.70
2023-03-17T16:21:20.348Z,57.20
2023-03-17T16:23:49.802Z,57.30
2023-03-17T16:26:18.128Z,57.60
2023-03-17T16:28:47.701Z,57.60
2023-03-17T16:31:29.305Z,57.70
2023-03-17T16:33:58.105Z,58.10
2023-03-17T16:36:26.590Z,58.50
2023-03-17T16:38:54.874Z,58.60
2023-03-17T16:41:24.392Z,58.50
2023-03-17T16:43:55.408Z,59.00
2023-03-17T16:46:23.850Z,59.30
2023-03-17T16:48:53.580Z,59.60
2023-03-17T16:51:22.105Z,59.90
2023-03-17T16:53:50.333Z,60.30
2023-03-17T16:56:20.579Z,61.00
2023-03-17T16:58:49.399Z,61.30
2023-03-17T17:01:20.382Z,61.50
2023-03-17T17:03:49.126Z,61.50
2023-03-17T17:06:19.641Z,61.60
2023-03-17T17:08:49.107Z,61.90
2023-03-17T17:11:18.868Z,62.20
2023-03-17T17:13:49.125Z,62.20
2023-03-17T17:16:21.518Z,62.30
2023-03-17T17:18:50.318Z,62.30
2023-03-17T17:21:20.027Z,62.30
2023-03-17T17:23:48.388Z,62.70
2023-03-17T17:26:16.622Z,62.50
2023-03-17T17:28:44.900Z,62.40
2023-03-17T17:31:13.189Z,63.00
2023-03-17T17:33:41.527Z,63.20
2023-03-17T17:36:14.674Z,63.00
2023-03-17T17:38:44.648Z,63.20
2023-03-17T17:41:13.733Z,63.30
2023-03-17T17:43:42.255Z,63.20
2023-03-17T17:46:14.290Z,63.10
2023-03-17T17:48:42.552Z,62.90
2023-03-17T17:51:10.760Z,62.90
2023-03-17T17:53:39.097Z,62.40
2023-03-17T17:56:12.059Z,61.40
2023-03-17T17:58:40.279Z,61.20
2023-03-17T18:01:08.565Z,60.70
2023-03-17T18:03:37.018Z,60.50
2023-03-17T18:06:05.567Z,60.50
2023-03-17T18:08:34.809Z,60.40
2023-03-17T18:11:03.004Z,60.20
2023-03-17T18:13:34.384Z,60.20
2023-03-17T18:16:03.974Z,60.30
2023-03-17T18:18:32.826Z,60.40
2023-03-17T18:21:01.110Z,60.60
2023-03-17T18:23:29.347Z,60.90
2023-03-17T18:26:00.648Z,61.30
2023-03-17T18:28:28.868Z,61.50
2023-03-17T18:31:03.609Z,61.90
2023-03-17T18:33:32.592Z,62.20
2023-03-17T18:36:01.325Z,62.50
2023-03-17T18:38:29.588Z,62.90
2023-03-17T18:40:57.833Z,63.00
2023-03-17T18:43:26.030Z,63.40
2023-03-17T18:45:54.226Z,63.60
2023-03-17T18:48:24.013Z,63.80
2023-03-17T18:50:52.248Z,64.30
2023-03-17T18:53:20.586Z,64.70
2023-03-17T18:55:48.895Z,65.10
2023-03-17T18:58:17.281Z,65.60
2023-03-17T19:00:45.511Z,65.80
2023-03-17T19:03:13.757Z,65.80
2023-03-17T19:05:43.360Z,66.30
2023-03-17T19:08:11.673Z,66.60
2023-03-17T19:10:43.201Z,66.90
2023-03-17T19:13:11.434Z,67.00
2023-03-17T19:15:39.604Z,66.80
2023-03-17T19:18:07.894Z,66.80
2023-03-17T19:20:36.658Z,66.10
2023-03-17T19:23:07.040Z,65.70
2023-03-17T19:25:36.809Z,65.30
2023-03-17T19:28:06.333Z,65.00
2023-03-17T19:30:35.145Z,65.00
2023-03-17T19:33:03.567Z,65.00
2023-03-17T19:35:31.803Z,64.50
2023-03-17T19:37:59.959Z,64.60
2023-03-17T19:40:29.760Z,64.40
2023-03-17T19:42:58.963Z,64.20
2023-03-17T19:45:27.238Z,64.10
2023-03-17T19:47:55.587Z,64.70
2023-03-17T19:50:23.793Z,64.20
2023-03-17T19:52:53.155Z,64.80
2023-03-17T19:55:21.347Z,64.20
2023-03-17T19:57:51.031Z,64.40
2023-03-17T20:00:19.688Z,64.60
2023-03-17T20:02:48.306Z,64.90
2023-03-17T20:05:17.192Z,64.90
2023-03-17T20:07:46.493Z,65.20
2023-03-17T20:10:14.774Z,65.40
2023-03-17T20:12:44.373Z,65.50
2023-03-17T20:15:15.033Z,65.90
2023-03-17T20:17:43.401Z,66.30
2023-03-17T20:20:12.831Z,66.50
2023-03-17T20:22:43.664Z,66.60
2023-03-17T20:25:12.444Z,66.70
2023-03-17T20:27:41.662Z,66.80
2023-03-17T20:30:12.248Z,67.00
2023-03-17T20:32:42.121Z,67.20
2023-03-17T20:35:10.735Z,67.40
2023-03-17T20:37:39.557Z,67.70
2023-03-17T20:40:10.776Z,67.80
2023-03-17T20:42:39.041Z,67.90
2023-03-17T20:45:08.928Z,68.20
2023-03-17T20:47:37.633Z,68.30
2023-03-17T20:50:08.853Z,68.30
2023-03-17T20:52:37.193Z,68.40
2023-03-17T20:55:06.519Z,68.40
2023-03-17T20:57:38.072Z,68.80
2023-03-17T21:00:08.246Z,68.80
2023-03-17T21:02:36.505Z,69.10
2023-03-17T21:05:05.210Z,69.10
2023-03-17T21:07:34.933Z,69.20
2023-03-17T21:10:03.177Z,69.30
2023-03-17T21:12:31.852Z,69.60
2023-03-17T21:15:00.766Z,69.60
2023-03-17T21:17:28.990Z,69.60
2023-03-17T21:19:57.288Z,69.90
2023-03-17T21:22:25.699Z,70.10
2023-03-17T21:24:55.518Z,70.40
2023-03-17T21:27:23.789Z,70.20
2023-03-17T21:29:52.286Z,70.50
2023-03-17T21:32:20.527Z,70.60
2023-03-17T21:34:48.674Z,70.90
2023-03-17T21:37:18.335Z,70.90
2023-03-17T21:39:46.770Z,70.90
2023-03-17T21:42:16.363Z,71.10
2023-03-17T21:44:45.855Z,70.90
2023-03-17T21:47:14.110Z,70.70
2023-03-17T21:49:42.550Z,70.70
2023-03-17T21:52:11.110Z,70.80
2023-03-17T21:54:39.422Z,70.90
2023-03-17T21:57:07.608Z,70.90
2023-03-17T21:59:37.285Z,71.10
2023-03-17T22:02:05.419Z,71.10
2023-03-17T22:04:33.633Z,71.00
2023-03-17T22:07:04.419Z,70.90
2023-03-17T22:09:32.699Z,70.90
2023-03-17T22:12:00.900Z,71.00
2023-03-17T22:14:29.390Z,71.60
2023-03-17T22:16:59.125Z,72.00
2023-03-17T22:19:28.586Z,72.70
2023-03-17T22:21:57.088Z,72.70
2023-03-17T22:24:25.642Z,72.30
2023-03-17T22:26:54.087Z,72.10
2023-03-17T22:29:22.285Z,72.20
2023-03-17T22:31:50.744Z,71.80
2023-03-17T22:34:20.517Z,71.40
2023-03-17T22:36:48.714Z,71.10
2023-03-17T22:39:16.954Z,71.10
2023-03-17T22:41:45.218Z,70.80
2023-03-17T22:44:13.480Z,71.10
2023-03-17T22:46:42.401Z,71.20
2023-03-17T22:49:11.458Z,71.50
2023-03-17T22:51:42.771Z,72.00
2023-03-17T22:54:11.759Z,72.00
2023-03-17T22:56:40.392Z,72.10
2023-03-17T22:59:08.697Z,72.30
2023-03-17T23:01:36.964Z,71.30
2023-03-17T23:04:05.212Z,70.70
2023-03-17T23:06:33.460Z,70.00
2023-03-17T23:09:03.127Z,70.00
2023-03-17T23:11:31.887Z,69.80
2023-03-17T23:14:00.176Z,69.80
2023-03-17T23:16:28.544Z,69.50
2023-03-17T23:18:56.931Z,69.80
2023-03-17T23:21:28.124Z,70.00
2023-03-17T23:23:56.635Z,70.30
2023-03-17T23:26:26.330Z,70.50
2023-03-17T23:28:54.800Z,70.20
2023-03-17T23:31:23.340Z,70.20
2023-03-17T23:33:52.670Z,69.50
2023-03-17T23:36:21.385Z,69.50
2023-03-17T23:38:50.374Z,69.60
2023-03-17T23:41:18.617Z,69.90
2023-03-17T23:43:49.150Z,69.80
2023-03-17T23:46:17.778Z,70.30
2023-03-17T23:48:46.192Z,70.50
2023-03-17T23:51:14.486Z,70.80
2023-03-17T23:53:43.004Z,71.10
2023-03-17T23:56:13.036Z,71.30
2023-03-17T23:58:42.529Z,71.50
